Kingsville Naval Air Station
KNQI : now visible

Airfield :











YOU CAN JOIN US ON...

 
LOGIN :

Register | Disclaimer

   EN    FR    IT 

 









Legend :    VFR   Marginal VFR   IFR   Intensive IFR   Very Intensive IFR
Visi :
Ceiling :
>= 8 km
>= 3000ft
5 to 8 km
1000 to 3000 ft
1500m to 5 km
500 to 1000 ft
800 to 1500m
200 to 500 ft
< 800m
< 200 ft
Symbols :   Thunderstorms  Fog  Heavy snow  Heavy precipitations  Wind > 20 kt







- Airport Elevation : 50 ft


KNQI - Kingsville Naval Air Station

CURRENT METAR :
  • 252256Z 33010KT 10SM SCT250 32/12 A2987 RMK AO2 SLP110 T03220117 $

EXPIRED METARs :
  • 252156Z 34008KT 310V010 10SM FEW050 FEW250 32/13 A2986 RMK AO2 SLP107 T03220128 $
  • 252056Z 33010G15KT 10SM FEW050 FEW250 32/13 A2986 RMK AO2 SLP109 T03170128 56013 $

TAF TAF KNQI
Valid from the 25 at 23:00 until the 26 at 23:00 UTC


2523/2623 35007KT 9999 SCT250 QNH2984INS
TEMPO 2600/2602 VRB05KT BKN250
FM260200 VRB05KT 9999 FEW250 QNH2988INS
FM261500 04007KT 9999 SCT250 QNH3006INS
FM261800 08010KT 9999 FEW035 SCT250 QNH3005INS
FM262200 09010KT 9999 FEW035 SCT250 QNH3000INS AUTOMATED SENSOR METWATCH 2605 TIL 2612 T16/2612Z T32/2620Z FN00003
KZHU FIR / North America



MET'MAP, your aeronautical weather chart ! - Copyright ORBIFLY December 2007 - Disclaimer

ORBIFLY MET'MAP TEAM :

Programming & Development : Alexandra Zaïnal
Concept & Development : Baudouin d'Aumeries
Co-Development & Prog : Marc-Olivier Méhu
Technical & hardware support : Manuel Goepfert

Contact : metmap@orbifly.com




SOURCES & CREDITS :

   NOAA       Earth
Advisory